Deer Harbor, Washington
Current Conditions -  °F | °C
As of 3:55 PM on Friday 28 Nov 2014 (Local Time) from KORS Reporting Station
Overcast Overcast  
Wind Chill: 37°   Ceiling: 4500
Heat Index: 43°   Visibility: 10mi
Dew Point: 32°   Wind: 12mph
Humidity: 66%   Direction: 350°N
Pressure: 29.45"   Gusts: NA
Location:  48.62°N, 122.99°W
Report Text: KORS 282355Z AUTO 35010KT 10SM OVC045 06/00 A2945 RMK AO2
Loading
Personal Weather Stations






























Interactive Weather Map New forecast layout! Learn more

10-Day Weather Forecast

Advertisements
Track Severe Weather on mobile